Portada
METAR-TAF:

METAR-TAF

Aeroports :

Aeroport de Sania Ramel

Tetuan, Marroc

latitud: 35-35N, longitud: 005-20W, altitud: 10 m

Observació

L'informe es va fer fa 11 minuts, a les 02:00 UTC
Vent 19 kt del Oest/Sud-Oest, variant entre Sud-Oest i Oest
Temperatura 16°C
Humitat 68%
Pressió 1024 hPa

METAR: GMTN 130200Z 25019KT 220V280 16/10 Q1024

Hora: 03:11 (02:11 UTC)


TAF: manca

Observacions i pronòstics meteorològics de més de 4000 aeroports (METAR i TAF).

Les estacions disponibles són els punts grocs i vermells al mapa.

Posi el ratolí al punt desitjat per veure el nom de l'estació.

Feu clic per veure les observacions i els pronòstics meteorològics.

Per canviar el mapa: feu clic els botons verds amb una creu de color negre per apropar; al botó verd amb un guió per allunyar la imatge; o en les fletxes verdes per a mapes adjacents.


METAR-TAF: